Time;durP1;ratioP1;P1;durP2;ratioP2;P2;SDS_P1;SDS_P2;PMS_P1;PMS_P2;Temp;Humidity;BMP_temperature;BMP_pressure;BME280_temperature;BME280_humidity;BME280_pressure;Samples;Min_cycle;Max_cycle;Signal;HPM_P1;HPM_P2
2023/01/25 00:02:21;;;;;;;30.83;21.67;;;0.90;99.90;;;;;;4994281;28;20187;-66
2023/01/25 00:04:47;;;;;;;31.50;22.00;;;1.00;99.90;;;;;;4994164;28;20200;-66
2023/01/25 00:07:12;;;;;;;30.13;22.53;;;1.00;99.90;;;;;;4994285;28;20180;-65
2023/01/25 00:09:38;;;;;;;30.07;22.93;;;0.90;99.90;;;;;;5009435;28;20177;-66
2023/01/25 00:12:04;;;;;;;31.90;22.80;;;0.80;99.90;;;;;;4994289;28;20250;-65
2023/01/25 00:14:30;;;;;;;29.13;22.37;;;0.70;99.90;;;;;;4994025;28;20196;-65
2023/01/25 00:16:55;;;;;;;33.67;24.57;;;0.70;99.90;;;;;;4994061;28;20191;-66
2023/01/25 00:19:22;;;;;;;34.20;24.20;;;0.60;99.90;;;;;;4994242;28;20192;-66
2023/01/25 00:21:48;;;;;;;30.97;23.00;;;0.50;99.90;;;;;;4992732;28;20192;-66
2023/01/25 00:24:14;;;;;;;35.57;25.23;;;0.40;99.90;;;;;;4994230;28;20231;-66
2023/01/25 00:26:44;;;;;;;36.93;24.23;;;0.30;99.90;;;;;;5009154;28;20204;-66
2023/01/25 00:29:12;;;;;;;34.80;24.37;;;0.30;99.90;;;;;;4992727;28;20292;-65
2023/01/25 00:31:57;;;;;;;38.37;24.97;;;0.30;99.90;;;;;;4992803;28;20544;-65
2023/01/25 00:34:23;;;;;;;34.57;24.80;;;0.20;99.90;;;;;;4994395;28;20250;-65
2023/01/25 00:36:57;;;;;;;35.30;24.37;;;0.10;99.90;;;;;;4994713;28;20180;-65
2023/01/25 00:39:25;;;;;;;31.03;22.20;;;0.20;99.90;;;;;;4995613;28;20224;-66
2023/01/25 00:41:50;;;;;;;36.43;24.50;;;0.30;99.90;;;;;;4997551;28;20180;-65
2023/01/25 00:44:16;;;;;;;36.03;24.60;;;0.40;99.90;;;;;;4996751;28;20176;-66
2023/01/25 00:46:42;;;;;;;35.67;23.77;;;0.40;99.90;;;;;;4996343;28;20235;-65
2023/01/25 00:49:25;;;;;;;32.90;23.67;;;0.40;99.90;;;;;;4995014;28;20223;-65
2023/01/25 00:51:53;;;;;;;32.53;22.67;;;0.40;99.90;;;;;;5011303;28;20319;-65
2023/01/25 00:54:19;;;;;;;30.63;22.97;;;0.40;99.90;;;;;;4997826;28;20196;-65
2023/01/25 00:56:45;;;;;;;35.33;24.13;;;0.40;99.90;;;;;;4996552;28;20338;-65
2023/01/25 00:59:12;;;;;;;33.43;23.93;;;0.20;99.90;;;;;;4996520;28;20660;-65
2023/01/25 01:01:40;;;;;;;31.50;22.70;;;0.10;99.90;;;;;;5012538;28;20234;-65
2023/01/25 01:04:05;;;;;;;30.70;22.67;;;0.10;99.90;;;;;;4997630;28;20181;-65
2023/01/25 01:06:34;;;;;;;33.83;23.63;;;0.20;99.90;;;;;;4997559;28;20634;-65
2023/01/25 01:09:00;;;;;;;30.97;22.43;;;0.20;99.90;;;;;;4997303;28;20210;-65
2023/01/25 01:11:26;;;;;;;33.93;23.00;;;0.30;99.90;;;;;;4997747;28;20180;-65
2023/01/25 01:13:52;;;;;;;33.33;23.37;;;0.30;99.90;;;;;;4997365;28;20187;-66
2023/01/25 01:16:17;;;;;;;36.87;24.40;;;0.40;99.90;;;;;;4997007;28;20212;-65
2023/01/25 01:18:44;;;;;;;31.17;23.63;;;0.40;99.90;;;;;;4996162;28;20216;-66
2023/01/25 01:21:11;;;;;;;29.80;22.10;;;0.40;99.90;;;;;;4996143;28;20196;-65
2023/01/25 01:23:38;;;;;;;34.50;24.40;;;0.40;99.90;;;;;;4997345;28;20180;-66
2023/01/25 01:26:06;;;;;;;33.40;23.17;;;0.40;99.90;;;;;;4997167;28;20661;-66
2023/01/25 01:28:33;;;;;;;31.53;23.03;;;0.50;99.90;;;;;;4997001;28;20207;-65
2023/01/25 01:31:04;;;;;;;27.40;19.37;;;0.50;99.90;;;;;;4997026;28;20177;-66
2023/01/25 01:33:30;;;;;;;29.43;20.67;;;0.40;99.90;;;;;;5012073;28;20188;-65
2023/01/25 01:35:56;;;;;;;32.30;21.30;;;0.40;99.90;;;;;;4996817;28;20196;-66
2023/01/25 01:38:22;;;;;;;29.27;21.13;;;0.40;99.90;;;;;;5012169;28;20185;-66
2023/01/25 01:40:48;;;;;;;29.83;21.57;;;0.40;99.90;;;;;;4997018;28;20185;-66
2023/01/25 01:43:20;;;;;;;30.83;22.17;;;0.40;99.90;;;;;;4997049;28;20208;-65
2023/01/25 01:45:51;;;;;;;31.53;21.57;;;0.40;99.90;;;;;;4995839;28;20727;-65
2023/01/25 01:48:37;;;;;;;29.67;21.23;;;0.40;99.90;;;;;;4997153;28;20660;-66
2023/01/25 01:51:23;;;;;;;32.03;22.40;;;0.40;99.90;;;;;;4996779;28;20714;-66
2023/01/25 01:54:15;;;;;;;28.73;20.33;;;0.40;99.90;;;;;;4996830;28;20168;-65
2023/01/25 01:57:13;;;;;;;28.13;20.50;;;0.40;99.90;;;;;;4994825;28;20299;-66
2023/01/25 01:59:47;;;;;;;31.77;20.47;;;0.40;99.90;;;;;;4995256;28;20207;-66
2023/01/25 02:02:13;;;;;;;29.93;21.93;;;0.40;99.90;;;;;;4995648;28;20179;-65
2023/01/25 02:04:42;;;;;;;31.23;21.97;;;0.50;99.90;;;;;;4994526;28;20204;-65
2023/01/25 02:07:17;;;;;;;31.23;21.07;;;0.50;99.90;;;;;;4996416;28;20258;-65
2023/01/25 02:09:43;;;;;;;29.47;20.67;;;0.50;99.90;;;;;;4996643;28;20168;-65
2023/01/25 02:12:11;;;;;;;30.93;21.57;;;0.30;99.90;;;;;;4996606;28;20176;-66
2023/01/25 02:14:44;;;;;;;32.93;22.43;;;0.20;99.90;;;;;;4996482;28;20189;-65
2023/01/25 02:17:11;;;;;;;35.10;22.43;;;0.10;99.90;;;;;;4995894;28;20184;-67
2023/01/25 02:19:39;;;;;;;34.37;22.87;;;0.10;99.90;;;;;;4994900;28;20172;-67
2023/01/25 02:22:09;;;;;;;34.73;23.57;;;-0.10;99.90;;;;;;4994832;28;20211;-67
2023/01/25 02:24:39;;;;;;;34.20;23.43;;;-0.10;99.90;;;;;;4996279;28;20204;-67
2023/01/25 02:27:05;;;;;;;41.77;24.93;;;-0.10;99.90;;;;;;4995956;28;20177;-67
2023/01/25 02:29:30;;;;;;;32.13;22.50;;;-0.10;99.90;;;;;;4996031;28;20662;-65
2023/01/25 02:32:04;;;;;;;35.73;23.57;;;-0.10;99.90;;;;;;4994517;28;20176;-65
2023/01/25 02:34:30;;;;;;;36.10;22.73;;;-0.10;99.90;;;;;;4995956;28;20196;-65
2023/01/25 02:36:56;;;;;;;34.93;23.73;;;0.00;99.90;;;;;;4995758;28;20230;-66
2023/01/25 02:39:25;;;;;;;33.17;23.63;;;0.10;99.90;;;;;;4996182;28;20180;-65
2023/01/25 02:41:51;;;;;;;36.03;23.80;;;0.10;99.90;;;;;;4995691;28;20183;-66
2023/01/25 02:44:24;;;;;;;34.43;23.23;;;0.20;99.90;;;;;;4995439;28;21019;-65
2023/01/25 02:46:50;;;;;;;33.60;22.73;;;0.20;99.90;;;;;;4995551;28;20690;-65
2023/01/25 02:49:17;;;;;;;34.13;22.13;;;0.30;99.90;;;;;;4994247;28;20219;-65
2023/01/25 02:51:54;;;;;;;35.10;23.63;;;0.30;99.90;;;;;;4995379;28;20208;-66
2023/01/25 02:54:21;;;;;;;32.67;22.60;;;0.30;99.90;;;;;;4995643;28;20184;-66
2023/01/25 02:56:47;;;;;;;36.63;23.87;;;0.30;99.90;;;;;;4994134;28;20180;-66
2023/01/25 02:59:13;;;;;;;36.07;24.50;;;0.30;99.90;;;;;;4995592;28;20230;-66
2023/01/25 03:01:41;;;;;;;37.07;24.03;;;0.20;99.90;;;;;;4995183;28;20176;-65
2023/01/25 03:04:08;;;;;;;39.00;23.67;;;0.20;99.90;;;;;;4995416;28;20192;-66
2023/01/25 03:06:34;;;;;;;33.20;22.80;;;0.20;99.90;;;;;;4995136;28;20177;-66
2023/01/25 03:09:01;;;;;;;34.90;22.70;;;0.20;99.90;;;;;;4995049;28;20255;-66
2023/01/25 03:11:26;;;;;;;32.50;22.67;;;0.20;99.90;;;;;;4993821;28;20172;-66
2023/01/25 03:13:52;;;;;;;32.73;21.57;;;0.20;99.90;;;;;;4995038;28;20180;-66
2023/01/25 03:16:18;;;;;;;32.60;23.13;;;0.20;99.90;;;;;;5009817;28;20211;-65
2023/01/25 03:18:44;;;;;;;32.53;22.53;;;0.30;99.90;;;;;;4993674;28;20187;-65
2023/01/25 03:21:13;;;;;;;32.13;21.87;;;0.30;99.90;;;;;;4995248;28;20176;-65
2023/01/25 03:23:40;;;;;;;35.17;23.13;;;0.30;99.90;;;;;;4994806;28;20196;-66
2023/01/25 03:26:12;;;;;;;34.97;23.23;;;0.30;99.90;;;;;;4994773;28;20196;-66
2023/01/25 03:28:39;;;;;;;35.30;23.20;;;0.30;99.90;;;;;;4994879;28;20203;-66
2023/01/25 03:31:06;;;;;;;33.50;23.17;;;0.30;99.90;;;;;;4994777;28;20212;-66
2023/01/25 03:33:32;;;;;;;34.10;22.73;;;0.30;99.90;;;;;;4994619;28;20173;-66
2023/01/25 03:35:58;;;;;;;36.90;24.70;;;0.30;99.90;;;;;;4994567;28;20675;-65
2023/01/25 03:38:25;;;;;;;31.03;22.07;;;0.20;99.90;;;;;;4993439;28;20217;-65
2023/01/25 03:40:50;;;;;;;34.77;24.03;;;0.20;99.90;;;;;;4994497;28;20541;-66
2023/01/25 03:43:16;;;;;;;33.80;22.70;;;0.20;99.90;;;;;;4994506;28;20186;-65
2023/01/25 03:45:42;;;;;;;31.53;22.03;;;0.30;99.90;;;;;;4994217;28;20235;-65
2023/01/25 03:48:08;;;;;;;33.27;23.17;;;0.20;99.90;;;;;;4993054;28;20563;-66
2023/01/25 03:50:33;;;;;;;33.27;23.77;;;0.20;99.90;;;;;;4994353;28;20192;-65
2023/01/25 03:53:06;;;;;;;36.73;24.40;;;0.20;99.90;;;;;;4994831;28;20173;-66
2023/01/25 03:55:35;;;;;;;35.30;23.93;;;0.10;99.90;;;;;;4993035;28;20192;-65
2023/01/25 03:58:01;;;;;;;35.50;23.47;;;-0.10;99.90;;;;;;4994442;28;20259;-65
2023/01/25 04:00:27;;;;;;;41.00;25.50;;;-0.10;99.90;;;;;;4994230;28;20276;-65
2023/01/25 04:02:52;;;;;;;34.13;24.37;;;-0.20;99.90;;;;;;4994154;28;20179;-65
2023/01/25 04:05:18;;;;;;;35.33;23.30;;;-0.10;99.90;;;;;;4994121;28;20665;-65
2023/01/25 04:07:44;;;;;;;34.40;23.33;;;-0.10;99.90;;;;;;4994318;28;20208;-65
2023/01/25 04:10:10;;;;;;;41.90;26.27;;;0.00;99.90;;;;;;4994169;28;20172;-65
2023/01/25 04:12:36;;;;;;;36.27;24.00;;;0.00;99.90;;;;;;4994099;28;20179;-65
2023/01/25 04:15:01;;;;;;;34.03;24.33;;;-0.10;99.90;;;;;;4994224;28;20192;-66
2023/01/25 04:17:27;;;;;;;35.80;25.23;;;-0.10;99.90;;;;;;4993923;28;20207;-66
2023/01/25 04:19:53;;;;;;;36.70;24.87;;;-0.10;99.90;;;;;;4993976;28;20172;-66
2023/01/25 04:22:19;;;;;;;36.20;24.87;;;-0.10;99.90;;;;;;4994348;28;20222;-65
2023/01/25 04:24:44;;;;;;;38.17;24.90;;;-0.10;99.90;;;;;;4994373;28;20738;-66
2023/01/25 04:27:10;;;;;;;36.53;23.97;;;0.00;99.90;;;;;;4993191;28;20173;-65
2023/01/25 04:29:36;;;;;;;35.97;24.40;;;-0.10;99.90;;;;;;4993781;28;20205;-65
2023/01/25 04:32:02;;;;;;;37.50;23.30;;;-0.10;99.90;;;;;;4993898;28;20172;-65
2023/01/25 04:34:27;;;;;;;36.83;21.60;;;-0.20;99.90;;;;;;4993857;28;20669;-66
2023/01/25 04:36:53;;;;;;;31.73;20.97;;;-0.30;99.90;;;;;;4994114;28;20176;-65
2023/01/25 04:39:19;;;;;;;32.43;21.93;;;-0.30;99.90;;;;;;4993825;28;20177;-65
2023/01/25 04:41:45;;;;;;;38.57;21.87;;;-0.40;99.90;;;;;;4994054;28;20177;-65
2023/01/25 04:44:11;;;;;;;28.50;19.27;;;-0.40;99.90;;;;;;4993619;28;20176;-65
2023/01/25 04:46:36;;;;;;;29.23;19.27;;;-0.40;99.90;;;;;;4992412;28;20192;-65
2023/01/25 04:49:02;;;;;;;31.47;19.27;;;-0.30;99.90;;;;;;4994223;28;20204;-65
2023/01/25 04:51:28;;;;;;;29.33;19.43;;;-0.40;99.90;;;;;;4993804;28;20610;-65
2023/01/25 04:53:54;;;;;;;30.17;19.73;;;-0.40;99.90;;;;;;4993798;28;20586;-65
2023/01/25 04:56:19;;;;;;;28.67;18.47;;;-0.40;99.90;;;;;;4993677;28;20192;-65
2023/01/25 04:58:45;;;;;;;28.53;17.97;;;-0.40;99.90;;;;;;4993766;28;20657;-65
2023/01/25 05:01:11;;;;;;;29.77;18.53;;;-0.40;99.90;;;;;;4993657;28;20258;-65
2023/01/25 05:03:36;;;;;;;28.20;18.50;;;-0.50;99.90;;;;;;4993511;28;20335;-65
2023/01/25 05:06:02;;;;;;;32.10;18.90;;;-0.50;99.90;;;;;;5008582;28;20197;-65
2023/01/25 05:08:28;;;;;;;27.10;17.67;;;-0.50;99.90;;;;;;4993506;28;20209;-65
2023/01/25 05:10:54;;;;;;;29.07;18.30;;;-0.50;99.90;;;;;;4993417;28;20172;-65
2023/01/25 05:13:19;;;;;;;28.70;18.03;;;-0.60;99.90;;;;;;4993970;28;20168;-65
2023/01/25 05:15:46;;;;;;;32.00;18.50;;;-0.60;99.90;;;;;;4993413;28;20207;-65
2023/01/25 05:18:11;;;;;;;25.80;17.57;;;-0.60;99.90;;;;;;4993396;28;20176;-65
2023/01/25 05:20:37;;;;;;;23.60;16.73;;;-0.60;99.90;;;;;;4993545;28;20183;-65
2023/01/25 05:23:03;;;;;;;28.90;18.30;;;-0.60;99.90;;;;;;4993783;28;20259;-65
2023/01/25 05:28:13;;;;;;;28.67;18.00;;;-0.50;99.90;;;;;;4993537;28;20262;-65
2023/01/25 05:30:39;;;;;;;27.30;18.07;;;-0.60;99.90;;;;;;4993515;28;20172;-65
2023/01/25 05:33:05;;;;;;;25.83;17.23;;;-0.60;99.90;;;;;;4992313;28;20177;-65
2023/01/25 05:35:31;;;;;;;26.07;17.57;;;-0.60;99.90;;;;;;4992158;28;20192;-65
2023/01/25 05:37:57;;;;;;;25.07;17.40;;;-0.60;99.90;;;;;;4995757;28;20208;-65
2023/01/25 05:40:24;;;;;;;27.13;16.90;;;-0.60;99.90;;;;;;4996845;28;20200;-65
2023/01/25 05:42:57;;;;;;;22.23;15.87;;;-0.70;99.90;;;;;;4996869;28;20169;-65
2023/01/25 05:45:23;;;;;;;23.43;16.47;;;-0.70;99.90;;;;;;4996657;28;20670;-65
2023/01/25 05:47:53;;;;;;;22.27;17.00;;;-0.70;99.90;;;;;;4996639;28;20692;-65
2023/01/25 05:50:19;;;;;;;24.57;16.00;;;-0.70;99.90;;;;;;4996925;28;20177;-65
2023/01/25 05:52:45;;;;;;;26.13;17.03;;;-0.60;99.90;;;;;;4995357;28;20192;-65
2023/01/25 05:55:11;;;;;;;23.93;17.77;;;-0.50;99.90;;;;;;4995295;28;20196;-65
2023/01/25 05:57:37;;;;;;;23.57;16.07;;;-0.50;99.90;;;;;;4996798;28;20664;-65
2023/01/25 06:00:07;;;;;;;20.87;14.97;;;-0.50;99.90;;;;;;4996934;28;20200;-65
2023/01/25 06:02:32;;;;;;;24.20;16.70;;;-0.50;99.90;;;;;;4996594;28;20179;-65
2023/01/25 06:04:58;;;;;;;26.30;16.97;;;-0.40;99.90;;;;;;4996500;28;20193;-67
2023/01/25 06:07:24;;;;;;;21.97;16.27;;;-0.40;99.90;;;;;;4996451;28;20169;-67
2023/01/25 06:09:50;;;;;;;28.37;17.80;;;-0.30;99.90;;;;;;4996277;28;20204;-67
2023/01/25 06:12:19;;;;;;;27.73;17.77;;;-0.40;99.90;;;;;;4996430;28;20173;-67
2023/01/25 06:14:46;;;;;;;26.23;18.03;;;-0.40;99.90;;;;;;4996220;28;20271;-67
2023/01/25 06:17:12;;;;;;;28.37;17.33;;;-0.40;99.90;;;;;;5011024;28;20713;-67
2023/01/25 06:19:38;;;;;;;26.53;17.37;;;-0.40;99.90;;;;;;5011311;28;20176;-66
2023/01/25 06:22:04;;;;;;;28.03;17.27;;;-0.30;99.90;;;;;;4996373;28;20538;-67
2023/01/25 06:24:30;;;;;;;25.90;17.50;;;-0.30;99.90;;;;;;4996525;28;20212;-66
2023/01/25 06:26:56;;;;;;;26.23;17.67;;;-0.30;99.90;;;;;;4998074;28;20176;-67
2023/01/25 06:29:21;;;;;;;26.53;18.43;;;-0.40;99.90;;;;;;4996647;28;20241;-66
2023/01/25 06:31:47;;;;;;;30.33;19.17;;;-0.40;99.90;;;;;;4994666;28;20529;-66
2023/01/25 06:34:13;;;;;;;25.67;18.20;;;-0.30;99.90;;;;;;4995834;28;20172;-66
2023/01/25 06:36:38;;;;;;;26.00;18.03;;;-0.30;99.90;;;;;;4995676;28;20179;-66
2023/01/25 06:39:04;;;;;;;29.93;18.83;;;-0.20;99.90;;;;;;4994508;28;20203;-66
2023/01/25 06:41:30;;;;;;;27.80;18.47;;;-0.20;99.90;;;;;;4995688;28;20185;-66
2023/01/25 06:43:56;;;;;;;31.83;19.17;;;-0.10;99.90;;;;;;4995587;28;20191;-66
2023/01/25 06:46:22;;;;;;;30.00;19.37;;;-0.10;99.90;;;;;;4995348;28;20314;-66
2023/01/25 06:48:48;;;;;;;24.70;18.43;;;-0.10;99.90;;;;;;4994682;28;20215;-66
2023/01/25 06:51:15;;;;;;;30.57;19.67;;;-0.10;99.90;;;;;;4994194;28;20558;-66
2023/01/25 06:53:42;;;;;;;30.87;19.57;;;-0.30;99.90;;;;;;5010430;28;20181;-66
2023/01/25 06:56:13;;;;;;;28.03;20.17;;;-0.30;99.90;;;;;;4995279;28;20204;-66
2023/01/25 06:58:40;;;;;;;33.97;21.07;;;-0.40;99.90;;;;;;4995285;28;20177;-66
2023/01/25 07:01:20;;;;;;;36.53;19.73;;;-0.50;99.90;;;;;;4995247;28;20263;-66
2023/01/25 07:03:51;;;;;;;29.33;19.07;;;-0.50;99.90;;;;;;5010167;28;20684;-66
2023/01/25 07:06:17;;;;;;;33.47;21.73;;;-0.50;99.90;;;;;;5010216;28;20242;-66
2023/01/25 07:08:43;;;;;;;34.87;20.97;;;-0.50;99.90;;;;;;4994988;28;20238;-66
2023/01/25 07:11:12;;;;;;;35.20;21.63;;;-0.40;99.90;;;;;;4993866;28;20608;-66
2023/01/25 07:13:41;;;;;;;32.80;20.23;;;-0.50;99.90;;;;;;4995061;28;20173;-66
2023/01/25 07:16:14;;;;;;;31.03;20.33;;;-0.40;99.90;;;;;;5009977;28;20220;-66
2023/01/25 07:18:41;;;;;;;35.43;20.63;;;-0.50;99.90;;;;;;4994926;28;20172;-66
2023/01/25 07:21:21;;;;;;;36.07;21.00;;;-0.40;99.90;;;;;;4995447;28;20172;-66
2023/01/25 07:23:51;;;;;;;30.97;20.53;;;-0.40;99.90;;;;;;4995233;28;20493;-64
2023/01/25 07:26:22;;;;;;;38.17;22.67;;;-0.30;99.90;;;;;;4994683;28;20200;-64
2023/01/25 07:28:49;;;;;;;32.13;22.03;;;-0.40;99.90;;;;;;4994617;28;20204;-64
2023/01/25 07:31:16;;;;;;;35.83;22.47;;;-0.50;99.90;;;;;;5009833;28;20606;-64
2023/01/25 07:33:43;;;;;;;35.43;21.80;;;-0.40;99.90;;;;;;5009683;28;20267;-64
2023/01/25 07:36:10;;;;;;;35.40;20.73;;;-0.40;99.90;;;;;;5009681;28;20203;-64
2023/01/25 07:38:36;;;;;;;32.97;20.97;;;-0.30;99.90;;;;;;5009692;28;20560;-64
2023/01/25 07:41:03;;;;;;;31.00;19.47;;;-0.30;99.90;;;;;;4994550;28;20187;-64
2023/01/25 07:43:29;;;;;;;34.53;21.67;;;-0.40;99.90;;;;;;4994498;28;20183;-64
2023/01/25 07:46:04;;;;;;;33.50;21.23;;;-0.40;99.90;;;;;;4994192;28;20226;-64
2023/01/25 07:48:31;;;;;;;33.60;21.30;;;-0.30;99.90;;;;;;4994285;28;20203;-64
2023/01/25 07:53:45;;;;;;;34.60;22.03;;;-0.30;99.90;;;;;;4994954;28;20355;-64
2023/01/25 07:56:11;;;;;;;34.10;20.90;;;-0.40;99.90;;;;;;4992942;28;20228;-64
2023/01/25 07:58:37;;;;;;;40.40;23.20;;;-0.40;99.90;;;;;;4994508;28;20189;-64
2023/01/25 08:01:07;;;;;;;34.53;23.30;;;-0.30;99.90;;;;;;4993336;28;20185;-64
2023/01/25 08:03:33;;;;;;;35.13;23.23;;;-0.30;99.90;;;;;;4993972;28;20192;-64
2023/01/25 08:05:59;;;;;;;37.80;23.13;;;-0.30;99.90;;;;;;4994185;28;20204;-64
2023/01/25 08:08:25;;;;;;;38.17;23.40;;;-0.30;99.90;;;;;;4992768;28;20631;-64
2023/01/25 08:10:51;;;;;;;36.07;22.50;;;-0.20;99.90;;;;;;5009240;28;20176;-64
2023/01/25 08:13:17;;;;;;;37.47;23.53;;;-0.20;99.90;;;;;;4994129;28;20211;-64
2023/01/25 08:15:43;;;;;;;41.30;25.40;;;-0.10;99.90;;;;;;4993864;28;20307;-64
2023/01/25 08:18:08;;;;;;;33.23;22.10;;;0.00;99.90;;;;;;4992648;28;20271;-64
2023/01/25 08:20:34;;;;;;;44.27;27.57;;;0.00;99.90;;;;;;4993984;28;20186;-64
2023/01/25 08:23:00;;;;;;;39.93;24.53;;;0.00;99.90;;;;;;4993962;28;20185;-67
2023/01/25 08:25:25;;;;;;;39.03;23.27;;;0.00;99.90;;;;;;4994186;28;20213;-66
2023/01/25 08:27:52;;;;;;;39.67;22.90;;;-0.10;99.90;;;;;;4993913;28;20205;-66
2023/01/25 08:30:18;;;;;;;38.33;24.80;;;-0.10;99.90;;;;;;4993944;28;20172;-66
2023/01/25 08:32:44;;;;;;;36.07;23.07;;;0.00;99.90;;;;;;4993747;28;20525;-66
2023/01/25 08:35:09;;;;;;;38.97;23.93;;;0.00;99.90;;;;;;4993906;28;20753;-66
2023/01/25 08:37:35;;;;;;;34.50;22.47;;;0.00;99.90;;;;;;4993882;28;20267;-66
2023/01/25 08:40:01;;;;;;;36.53;23.17;;;0.00;99.90;;;;;;4992571;28;20181;-66
2023/01/25 08:42:27;;;;;;;38.13;23.30;;;0.10;99.90;;;;;;4994055;28;20545;-66
2023/01/25 08:44:52;;;;;;;32.97;20.97;;;0.00;99.90;;;;;;4993620;28;20290;-66
2023/01/25 08:47:18;;;;;;;36.43;21.77;;;0.00;99.90;;;;;;4993672;28;20173;-66
2023/01/25 08:49:44;;;;;;;34.10;22.27;;;0.10;99.90;;;;;;4993885;28;20219;-66
2023/01/25 08:52:13;;;;;;;32.60;21.20;;;0.10;99.90;;;;;;4993666;28;20180;-66
2023/01/25 08:54:42;;;;;;;34.67;21.57;;;0.10;99.90;;;;;;4993585;28;20661;-66
2023/01/25 08:57:09;;;;;;;36.03;22.10;;;0.10;99.90;;;;;;4993690;28;20179;-66
2023/01/25 08:59:34;;;;;;;38.43;21.87;;;0.00;99.90;;;;;;5008704;28;20268;-66
2023/01/25 09:02:00;;;;;;;36.67;22.70;;;-0.20;99.90;;;;;;4992310;28;20697;-66
2023/01/25 09:04:27;;;;;;;38.30;23.83;;;-0.40;99.90;;;;;;4992334;28;20207;-66
2023/01/25 09:06:54;;;;;;;39.90;24.53;;;-0.50;99.90;;;;;;4993667;28;20587;-66
2023/01/25 09:09:21;;;;;;;38.23;22.87;;;-0.50;99.90;;;;;;4993580;28;20661;-66
2023/01/25 09:11:47;;;;;;;41.00;22.40;;;-0.70;99.90;;;;;;4994030;28;20197;-66
2023/01/25 09:14:13;;;;;;;42.17;23.83;;;-0.70;99.90;;;;;;4996318;28;20276;-66
2023/01/25 09:16:38;;;;;;;40.07;23.97;;;-0.60;99.90;;;;;;4997330;28;20196;-66
2023/01/25 09:19:05;;;;;;;38.87;23.60;;;-0.60;99.90;;;;;;4997354;28;20636;-66
2023/01/25 09:21:32;;;;;;;42.37;24.27;;;-0.50;99.90;;;;;;4997265;28;20180;-66
2023/01/25 09:23:59;;;;;;;44.13;23.87;;;-0.50;99.90;;;;;;5012214;28;20557;-66
2023/01/25 09:26:25;;;;;;;38.20;23.30;;;-0.40;99.90;;;;;;4997089;28;20251;-66
2023/01/25 09:28:52;;;;;;;35.53;22.93;;;-0.40;99.90;;;;;;4997309;28;20661;-66
2023/01/25 09:31:19;;;;;;;42.00;24.37;;;-0.50;99.90;;;;;;5012130;28;20659;-66
2023/01/25 09:33:45;;;;;;;48.97;25.17;;;-0.50;99.90;;;;;;4996927;28;20211;-66
2023/01/25 09:36:11;;;;;;;37.77;22.80;;;-0.40;99.90;;;;;;4997302;28;20192;-66
2023/01/25 09:38:37;;;;;;;43.87;23.73;;;-0.50;99.90;;;;;;4997344;28;20589;-66
2023/01/25 09:41:18;;;;;;;40.33;24.00;;;-0.50;99.90;;;;;;4996947;28;20161;-66
2023/01/25 09:44:01;;;;;;;47.27;25.20;;;-0.60;99.90;;;;;;4996931;28;20668;-66
2023/01/25 09:46:36;;;;;;;40.80;23.70;;;-0.50;99.90;;;;;;4995436;28;20243;-66
2023/01/25 09:49:24;;;;;;;43.40;24.07;;;-0.50;99.90;;;;;;4996548;28;20196;-66
2023/01/25 09:52:33;;;;;;;38.43;22.57;;;-0.40;99.90;;;;;;4996917;28;20161;-66
2023/01/25 09:54:59;;;;;;;41.27;22.67;;;-0.40;99.90;;;;;;4996386;28;20196;-66
2023/01/25 09:57:35;;;;;;;36.87;21.37;;;-0.40;99.90;;;;;;5011540;28;20176;-66
2023/01/25 10:00:12;;;;;;;38.23;21.93;;;-0.50;99.90;;;;;;4996827;28;20160;-66
2023/01/25 10:02:53;;;;;;;37.40;22.00;;;-0.50;99.90;;;;;;4996269;28;20169;-66
2023/01/25 10:05:25;;;;;;;41.93;21.43;;;-0.50;99.90;;;;;;4996461;28;20207;-66
2023/01/25 10:08:42;;;;;;;34.90;21.50;;;-0.50;99.90;;;;;;4996140;28;20181;-66
2023/01/25 10:11:22;;;;;;;35.70;22.37;;;-0.50;99.90;;;;;;4917459;29;20183;-66
2023/01/25 10:13:48;;;;;;;38.90;21.93;;;-0.50;99.90;;;;;;4994748;28;20185;-66
2023/01/25 10:16:22;;;;;;;36.30;21.57;;;-0.50;99.90;;;;;;4996126;28;20223;-66
2023/01/25 10:18:47;;;;;;;35.37;21.57;;;-0.40;99.90;;;;;;4996070;28;20529;-66
2023/01/25 10:21:22;;;;;;;36.13;21.97;;;-0.30;99.90;;;;;;4996204;28;20187;-66
2023/01/25 10:24:18;;;;;;;39.80;22.33;;;-0.30;99.90;;;;;;5010151;28;20178;-66
2023/01/25 10:26:50;;;;;;;40.10;22.77;;;-0.30;99.90;;;;;;4996286;28;20208;-66
2023/01/25 10:29:22;;;;;;;43.87;23.53;;;-0.30;99.90;;;;;;4994608;28;20668;-66
2023/01/25 10:31:52;;;;;;;37.23;21.93;;;-0.30;99.90;;;;;;4995920;28;20177;-66
2023/01/25 10:34:20;;;;;;;37.90;22.13;;;-0.40;99.90;;;;;;4995681;28;20179;-66
2023/01/25 10:37:00;;;;;;;34.73;21.23;;;-0.30;99.90;;;;;;4994452;28;20671;-66
2023/01/25 10:39:27;;;;;;;42.70;23.53;;;-0.20;99.90;;;;;;4994554;28;20637;-68
2023/01/25 10:42:00;;;;;;;42.90;23.43;;;-0.10;99.90;;;;;;4994529;28;20660;-68
2023/01/25 10:44:27;;;;;;;36.47;21.70;;;-0.10;99.90;;;;;;5010639;28;20299;-68
2023/01/25 10:47:22;;;;;;;43.57;23.20;;;-0.20;99.90;;;;;;4994291;28;20188;-67
2023/01/25 10:49:53;;;;;;;43.23;22.83;;;-0.20;99.90;;;;;;4995855;28;20200;-67
2023/01/25 10:52:25;;;;;;;41.80;24.03;;;-0.20;99.90;;;;;;4994285;28;20173;-67
2023/01/25 10:55:15;;;;;;;41.23;23.53;;;-0.20;99.90;;;;;;4995605;28;20199;-68
2023/01/25 10:57:56;;;;;;;38.13;23.53;;;-0.20;99.90;;;;;;5010468;28;20181;-66
2023/01/25 11:00:35;;;;;;;43.30;23.93;;;-0.10;99.90;;;;;;4995424;28;20157;-65
2023/01/25 11:03:01;;;;;;;44.03;24.90;;;-0.10;99.90;;;;;;4995398;28;20160;-66
2023/01/25 11:05:36;;;;;;;38.77;23.63;;;-0.10;99.90;;;;;;4993947;28;20207;-68
2023/01/25 11:08:28;;;;;;;44.13;23.40;;;-0.10;99.90;;;;;;4995174;28;20330;-66
2023/01/25 11:10:56;;;;;;;43.93;25.70;;;0.00;99.90;;;;;;4995136;28;20196;-66
2023/01/25 11:13:32;;;;;;;44.23;25.03;;;0.00;99.90;;;;;;4995220;28;20171;-66
2023/01/25 11:16:03;;;;;;;43.57;24.60;;;0.00;99.90;;;;;;4995229;28;20545;-66
2023/01/25 11:18:34;;;;;;;43.87;23.60;;;0.00;99.90;;;;;;4995142;28;20219;-66
2023/01/25 11:21:22;;;;;;;38.67;22.80;;;0.00;99.90;;;;;;5010107;28;20653;-66
2023/01/25 11:24:15;;;;;;;42.93;25.00;;;-0.10;99.90;;;;;;4994988;28;20161;-66
2023/01/25 11:26:41;;;;;;;39.80;23.00;;;-0.10;99.90;;;;;;5010129;28;20620;-66
2023/01/25 11:29:10;;;;;;;41.83;23.60;;;-0.10;99.90;;;;;;4994755;28;20211;-66
2023/01/25 11:31:36;;;;;;;47.20;23.83;;;-0.10;99.90;;;;;;4994819;28;20184;-67
2023/01/25 11:34:10;;;;;;;47.00;25.50;;;0.00;99.90;;;;;;4994776;28;20587;-64
2023/01/25 11:37:08;;;;;;;45.00;25.00;;;-0.10;99.90;;;;;;4994604;28;20198;-65
2023/01/25 11:39:48;;;;;;;48.73;25.57;;;0.00;99.90;;;;;;4950837;28;20275;-67
2023/01/25 11:42:33;;;;;;;45.87;25.00;;;0.10;99.90;;;;;;4993497;28;20173;-67
2023/01/25 11:45:44;;;;;;;43.83;24.63;;;0.10;99.90;;;;;;4994328;28;20697;-67
2023/01/25 11:48:34;;;;;;;43.27;26.73;;;0.10;99.90;;;;;;4974766;28;20212;-67
2023/01/25 11:51:17;;;;;;;43.17;24.67;;;0.10;99.90;;;;;;4994433;28;20243;-67
2023/01/25 11:53:56;;;;;;;43.17;24.60;;;0.20;99.90;;;;;;5009563;28;20179;-67
2023/01/25 11:56:35;;;;;;;49.30;25.73;;;0.10;99.90;;;;;;4993113;28;20665;-65
2023/01/25 11:59:07;;;;;;;53.10;28.03;;;0.00;99.90;;;;;;4994398;28;20164;-66
2023/01/25 12:01:58;;;;;;;53.33;28.20;;;0.00;99.90;;;;;;4993091;28;20238;-65
2023/01/25 12:04:36;;;;;;;46.87;26.17;;;0.00;99.90;;;;;;4994196;28;20164;-65
2023/01/25 12:07:17;;;;;;;50.60;26.47;;;-0.10;99.90;;;;;;4994510;28;20156;-65
2023/01/25 12:10:07;;;;;;;44.77;25.47;;;-0.10;99.90;;;;;;4994106;28;20199;-65
2023/01/25 12:12:55;;;;;;;48.80;27.13;;;-0.10;99.90;;;;;;4992960;28;20222;-65
2023/01/25 12:15:51;;;;;;;44.00;24.57;;;0.00;99.90;;;;;;4992853;28;20200;-65
2023/01/25 12:18:59;;;;;;;41.53;23.60;;;0.00;99.90;;;;;;4994249;28;20164;-65
2023/01/25 12:21:52;;;;;;;37.73;22.47;;;0.00;99.90;;;;;;4994525;28;20160;-65
2023/01/25 12:24:25;;;;;;;47.47;24.23;;;-0.10;99.90;;;;;;4994178;28;20173;-65
2023/01/25 12:27:22;;;;;;;44.43;24.73;;;-0.20;99.90;;;;;;4994467;28;20614;-65
2023/01/25 12:30:12;;;;;;;40.93;21.70;;;-0.30;99.90;;;;;;4993980;28;20204;-65
2023/01/25 12:32:57;;;;;;;45.90;24.43;;;-0.20;99.90;;;;;;4995000;28;20625;-66
2023/01/25 12:35:41;;;;;;;41.53;24.30;;;-0.20;99.90;;;;;;4994521;28;20295;-66
2023/01/25 12:38:18;;;;;;;37.80;22.23;;;-0.30;99.90;;;;;;4995871;28;20180;-65
2023/01/25 12:40:58;;;;;;;36.27;20.93;;;-0.20;99.90;;;;;;5009896;28;20179;-65
2023/01/25 12:43:34;;;;;;;41.73;22.53;;;-0.20;99.90;;;;;;4993744;28;20172;-65
2023/01/25 12:46:09;;;;;;;37.77;23.20;;;-0.20;99.90;;;;;;5009179;28;20228;-65
2023/01/25 12:48:42;;;;;;;41.23;22.20;;;-0.10;99.90;;;;;;4997474;28;20422;-65
2023/01/25 12:51:09;;;;;;;34.60;20.30;;;-0.10;99.90;;;;;;4998559;28;20248;-65
2023/01/25 12:53:48;;;;;;;37.77;21.53;;;-0.10;99.90;;;;;;4998368;28;20172;-65